Track Кладиенко Олег

Time Latitude Longitude Accuracy (66% radius in meters) Altitude (meters) Speed (km/hour) Bearing (degrees) Battery (%) GPS flag
09:27:51 60.403350 30.333683 0 0 0 0 1 delete
09:27:50 60.403352 30.333683 0 0 0 0 1 delete
09:27:49 60.403352 30.333683 0 0 0 0 1 delete
09:27:48 60.403352 30.333683 0 0 0 0 1 delete
09:27:47 60.403352 30.333683 0 0 0 0 1 delete
09:27:46 60.403352 30.333685 0 0 0 0 1 delete
09:27:45 60.403352 30.333687 0 0 0 0 1 delete
09:27:44 60.403353 30.333690 0 0 0 0 1 delete
09:27:43 60.403357 30.333692 0 0 0 0 1 delete
09:27:42 60.403358 30.333695 0 0 0 0 1 delete
09:27:41 60.403358 30.333697 0 0 0 0 1 delete
09:27:40 60.403358 30.333697 0 0 0 0 1 delete
09:27:39 60.403357 30.333697 0 0 0 0 1 delete
09:27:38 60.403357 30.333697 0 0 0 0 1 delete
09:27:37 60.403355 30.333697 0 0 0 0 1 delete
09:27:36 60.403355 30.333697 0 0 0 0 1 delete
09:27:35 60.403353 30.333695 0 0 0 0 1 delete
09:27:34 60.403353 30.333695 0 0 0 0 1 delete
09:27:33 60.403353 30.333697 0 0 0 0 1 delete
09:27:32 60.403353 30.333697 0 0 0 0 1 delete
09:27:31 60.403353 30.333697 0 0 0 0 1 delete
09:27:30 60.403353 30.333697 0 0 0 0 1 delete
09:27:29 60.403353 30.333698 0 0 0 0 1 delete
09:27:28 60.403353 30.333698 0 0 0 0 1 delete
09:27:27 60.403353 30.333698 0 0 0 0 1 delete
09:27:26 60.403353 30.333700 0 0 0 0 1 delete
09:27:25 60.403353 30.333700 0 0 0 0 1 delete
09:27:24 60.403353 30.333702 0 0 0 0 1 delete
09:27:23 60.403353 30.333702 0 0 0 0 1 delete
09:27:22 60.403353 30.333703 0 0 0 0 1 delete
09:27:21 60.403352 30.333705 0 0 0 0 1 delete
09:27:20 60.403352 30.333707 0 0 0 0 1 delete
09:27:19 60.403350 30.333707 0 0 0 0 1 delete
09:27:18 60.403352 30.333707 0 0 0 0 1 delete
09:27:17 60.403350 30.333710 0 0 0 0 1 delete
09:27:16 60.403350 30.333710 0 0 0 0 1 delete
09:27:15 60.403350 30.333712 0 0 0 0 1 delete
09:27:14 60.403350 30.333712 0 0 0 0 1 delete
09:27:13 60.403353 30.333712 0 0 0 0 1 delete
09:27:12 60.403353 30.333712 0 0 0 0 1 delete
09:27:11 60.403355 30.333712 0 0 0 0 1 delete
09:27:10 60.403357 30.333712 0 0 0 0 1 delete
09:27:09 60.403357 30.333710 0 0 0 0 1 delete
09:27:08 60.403358 30.333712 0 0 0 0 1 delete
09:27:07 60.403362 30.333712 0 0 0 0 1 delete
09:27:06 60.403363 30.333715 0 0 0 0 1 delete
09:27:05 60.403365 30.333718 0 0 0 0 1 delete
09:27:04 60.403372 30.333718 0 0 0 0 1 delete
09:27:03 60.403377 30.333717 0 0 0 0 1 delete
09:27:02 60.403382 30.333718 0 0 0 0 1 delete